createdAt,value
2022-10-10T00:01:49.446Z,100719.28
2022-10-10T00:04:53.181Z,100727.47
2022-10-10T00:07:55.501Z,100725.84
2022-10-10T00:10:57.477Z,100722.28
2022-10-10T00:13:59.579Z,100720.84
2022-10-10T00:17:01.552Z,100718.97
2022-10-10T00:20:04.082Z,100729.06
2022-10-10T00:23:06.067Z,100720.25
2022-10-10T00:26:09.278Z,100723.78
2022-10-10T00:29:11.946Z,100717.69
2022-10-10T00:32:13.976Z,100717.69
2022-10-10T00:35:16.001Z,100708.13
2022-10-10T00:38:18.416Z,100711.56
2022-10-10T00:41:22.307Z,100706.31
2022-10-10T00:44:24.392Z,100715.19
2022-10-10T00:47:26.373Z,100713.53
2022-10-10T00:50:29.967Z,100720.44
2022-10-10T00:53:54.131Z,100717.81
2022-10-10T00:57:00.804Z,100715.25
2022-10-10T01:00:04.760Z,100717.00
2022-10-10T01:03:06.926Z,100715.25
2022-10-10T01:06:09.343Z,100708.19
2022-10-10T01:09:11.278Z,100706.47
2022-10-10T01:12:18.092Z,100703.81
2022-10-10T01:15:42.645Z,100700.41
2022-10-10T01:18:47.257Z,100708.31
2022-10-10T01:22:04.313Z,100707.41
2022-10-10T01:25:27.726Z,100704.56
2022-10-10T01:29:07.508Z,100701.72
2022-10-10T01:32:26.697Z,100697.87
2022-10-10T01:35:47.053Z,100700.91
2022-10-10T01:39:10.086Z,100698.69
2022-10-10T01:42:25.136Z,100700.06
2022-10-10T01:45:28.454Z,100697.91
2022-10-10T01:48:32.443Z,100699.97
2022-10-10T01:51:55.038Z,100696.91
2022-10-10T01:55:20.042Z,100686.66
2022-10-10T01:58:48.007Z,100680.03
2022-10-10T02:02:16.248Z,100691.84
2022-10-10T02:05:33.363Z,100677.25
2022-10-10T02:08:43.650Z,100676.97
2022-10-10T02:11:45.640Z,100671.44
2022-10-10T02:14:51.454Z,100677.41
2022-10-10T02:17:56.381Z,100678.22
2022-10-10T02:20:58.752Z,100677.09
2022-10-10T02:24:06.876Z,100683.88
2022-10-10T02:27:16.066Z,100679.28
2022-10-10T02:30:18.900Z,100680.87
2022-10-10T02:33:27.139Z,100679.84
2022-10-10T02:36:31.371Z,100671.69
2022-10-10T02:39:40.810Z,100675.09
2022-10-10T02:42:45.421Z,100682.09
2022-10-10T02:45:47.422Z,100682.94
2022-10-10T02:48:49.370Z,100682.09
2022-10-10T02:51:51.422Z,100687.38
2022-10-10T02:54:53.473Z,100691.81
2022-10-10T02:57:55.445Z,100690.09
2022-10-10T03:00:57.414Z,100691.88
2022-10-10T03:03:59.416Z,100693.84
2022-10-10T03:07:01.305Z,100686.00
2022-10-10T03:10:06.241Z,100690.56
2022-10-10T03:13:08.587Z,100693.28
2022-10-10T03:16:11.351Z,100691.59
2022-10-10T03:19:13.332Z,100697.72
2022-10-10T03:22:15.290Z,100696.88
2022-10-10T03:25:17.324Z,100700.38
2022-10-10T03:28:19.436Z,100697.78
2022-10-10T03:31:22.202Z,100696.16
2022-10-10T03:34:24.217Z,100696.16
2022-10-10T03:37:26.230Z,100689.09
2022-10-10T03:40:29.342Z,100689.09
2022-10-10T03:43:31.983Z,100693.59
2022-10-10T03:46:33.923Z,100692.50
2022-10-10T03:49:35.814Z,100687.22
2022-10-10T03:52:37.876Z,100691.44
2022-10-10T03:55:41.288Z,100690.66
2022-10-10T03:58:43.519Z,100692.19
2022-10-10T04:01:45.524Z,100691.28
2022-10-10T04:04:47.551Z,100692.13
2022-10-10T04:07:49.528Z,100695.53
2022-10-10T04:10:53.504Z,100693.69
2022-10-10T04:13:55.489Z,100695.38
2022-10-10T04:17:00.959Z,100693.38
2022-10-10T04:20:05.493Z,100687.06
2022-10-10T04:23:07.804Z,100686.28
2022-10-10T04:26:09.795Z,100687.97
2022-10-10T04:29:11.802Z,100685.34
2022-10-10T04:32:14.007Z,100689.78
2022-10-10T04:35:15.969Z,100680.84
2022-10-10T04:38:19.910Z,100687.97
2022-10-10T04:41:21.861Z,100687.22
2022-10-10T04:44:23.959Z,100680.38
2022-10-10T04:47:25.927Z,100691.81
2022-10-10T04:50:28.043Z,100693.59
2022-10-10T04:53:30.040Z,100684.03
2022-10-10T04:56:32.029Z,100689.25
2022-10-10T04:59:34.438Z,100684.91
2022-10-10T05:02:36.397Z,100681.41
2022-10-10T05:05:39.907Z,100675.44
2022-10-10T05:08:41.968Z,100683.56
2022-10-10T05:11:44.015Z,100683.56
2022-10-10T05:14:48.227Z,100680.13
2022-10-10T05:17:50.467Z,100680.13
2022-10-10T05:20:52.442Z,100678.59
2022-10-10T05:23:54.825Z,100684.72
2022-10-10T05:26:56.800Z,100685.66
2022-10-10T05:29:58.841Z,100686.47
2022-10-10T05:33:00.808Z,100686.47
2022-10-10T05:36:11.970Z,100686.47
2022-10-10T05:39:13.964Z,100698.56
2022-10-10T05:42:16.100Z,100696.94
2022-10-10T05:45:18.155Z,100685.66
2022-10-10T05:48:20.208Z,100690.66
2022-10-10T05:51:22.245Z,100676.66
2022-10-10T05:54:24.286Z,100690.25
2022-10-10T05:57:26.359Z,100691.81
2022-10-10T06:00:29.164Z,100697.81
2022-10-10T06:03:31.339Z,100698.56
2022-10-10T06:06:33.395Z,100698.41
2022-10-10T06:09:35.451Z,100701.91
2022-10-10T06:12:37.489Z,100704.16
2022-10-10T06:15:39.499Z,100705.69
2022-10-10T06:18:41.491Z,100706.28
2022-10-10T06:21:43.473Z,100707.66
2022-10-10T06:24:47.494Z,100705.41
2022-10-10T06:27:52.893Z,100707.47
2022-10-10T06:30:54.951Z,100704.34
2022-10-10T06:33:56.987Z,100701.53
2022-10-10T06:36:59.043Z,100717.84
2022-10-10T06:40:01.041Z,100702.31
2022-10-10T06:43:04.742Z,100714.47
2022-10-10T06:46:06.793Z,100715.37
2022-10-10T06:49:08.961Z,100719.41
2022-10-10T06:52:10.931Z,100721.81
2022-10-10T06:55:12.857Z,100725.13
2022-10-10T06:58:15.014Z,100723.09
2022-10-10T07:01:21.806Z,100721.13
2022-10-10T07:04:23.869Z,100725.25
2022-10-10T07:07:25.870Z,100718.37
2022-10-10T07:10:27.887Z,100728.81
2022-10-10T07:13:29.937Z,100735.50
2022-10-10T07:16:32.483Z,100730.00
2022-10-10T07:19:36.854Z,100732.41
2022-10-10T07:22:38.945Z,100735.81
2022-10-10T07:25:42.833Z,100733.19
2022-10-10T07:28:45.458Z,100736.41
2022-10-10T07:31:47.517Z,100738.25
2022-10-10T07:34:51.056Z,100734.78
2022-10-10T07:37:56.338Z,100740.56
2022-10-10T07:40:58.435Z,100744.16
2022-10-10T07:44:00.483Z,100742.37
2022-10-10T07:47:02.448Z,100740.56
2022-10-10T07:50:06.300Z,100745.03
2022-10-10T07:53:09.525Z,100745.28
2022-10-10T07:56:12.146Z,100738.63
2022-10-10T07:59:14.346Z,100737.00
2022-10-10T08:02:16.508Z,100742.13
2022-10-10T08:05:18.576Z,100741.94
2022-10-10T08:08:20.602Z,100747.06
2022-10-10T08:11:22.782Z,100740.12
2022-10-10T08:14:24.766Z,100741.34
2022-10-10T08:17:26.864Z,100742.94
2022-10-10T08:20:28.814Z,100742.63
2022-10-10T08:23:30.874Z,100729.13
2022-10-10T08:26:32.989Z,100733.41
2022-10-10T08:29:35.010Z,100733.69
2022-10-10T08:32:36.958Z,100737.75
2022-10-10T08:35:40.123Z,100729.66
2022-10-10T08:38:42.355Z,100731.53
2022-10-10T08:41:58.171Z,100717.47
2022-10-10T08:45:06.642Z,100720.50
2022-10-10T08:48:14.833Z,100723.75
2022-10-10T08:51:29.714Z,100721.84
2022-10-10T08:54:33.826Z,100720.34
2022-10-10T08:57:49.918Z,100713.50
2022-10-10T09:00:56.498Z,100714.06
2022-10-10T09:04:01.960Z,100720.50
2022-10-10T09:07:19.215Z,100708.28
2022-10-10T09:10:52.706Z,100715.22
2022-10-10T09:14:20.082Z,100712.31
2022-10-10T09:17:53.995Z,100711.91
2022-10-10T09:20:58.941Z,100706.44
2022-10-10T09:24:22.633Z,100700.78
2022-10-10T09:27:31.969Z,100692.28
2022-10-10T09:30:40.893Z,100692.56
2022-10-10T09:33:52.265Z,100683.34
2022-10-10T09:36:59.134Z,100683.78
2022-10-10T09:40:11.716Z,100677.31
2022-10-10T09:43:21.156Z,100676.03
2022-10-10T09:46:23.512Z,100674.56
2022-10-10T09:49:25.925Z,100676.84
2022-10-10T09:52:30.910Z,100673.22
2022-10-10T09:55:36.040Z,100670.41
2022-10-10T09:58:47.338Z,100659.94
2022-10-10T10:02:02.903Z,100657.84
2022-10-10T10:05:18.937Z,100657.94
2022-10-10T10:08:26.368Z,100654.63
2022-10-10T10:11:35.131Z,100657.81
2022-10-10T10:14:38.702Z,100647.53
2022-10-10T10:17:40.646Z,100649.12
2022-10-10T10:20:48.190Z,100651.94
2022-10-10T10:23:50.129Z,100646.09
2022-10-10T10:26:52.130Z,100639.72
2022-10-10T10:29:57.104Z,100637.00
2022-10-10T10:33:27.048Z,100636.16
2022-10-10T10:36:38.320Z,100634.06
2022-10-10T10:40:13.834Z,100643.03
2022-10-10T10:43:28.025Z,100635.69
2022-10-10T10:47:04.239Z,100641.53
2022-10-10T10:50:30.790Z,100644.78
2022-10-10T10:53:57.711Z,100645.00
2022-10-10T10:57:32.198Z,100637.63
2022-10-10T11:01:24.349Z,100620.06
2022-10-10T11:05:23.047Z,100616.59
2022-10-10T11:08:07.356Z,100633.34
2022-10-10T11:11:19.395Z,100619.75
2022-10-10T11:14:52.498Z,100616.91
2022-10-10T11:18:10.569Z,100608.38
2022-10-10T11:21:19.494Z,100617.63
2022-10-10T11:24:21.450Z,100622.47
2022-10-10T11:27:46.082Z,100613.50
2022-10-10T11:30:54.601Z,100600.25
2022-10-10T11:34:05.927Z,100592.03
2022-10-10T11:37:16.853Z,100593.22
2022-10-10T11:40:28.953Z,100577.97
2022-10-10T11:43:40.794Z,100582.03
2022-10-10T11:46:50.924Z,100574.88
2022-10-10T11:49:58.589Z,100561.34
2022-10-10T11:53:12.660Z,100559.78
2022-10-10T11:56:17.716Z,100557.47
2022-10-10T11:59:53.807Z,100550.56
2022-10-10T12:02:58.355Z,100552.22
2022-10-10T12:06:11.343Z,100561.28
2022-10-10T12:09:32.779Z,100551.84
2022-10-10T12:12:40.324Z,100549.63
2022-10-10T12:15:46.591Z,100545.78
2022-10-10T12:18:54.478Z,100544.66
2022-10-10T12:22:05.709Z,100545.09
2022-10-10T12:25:20.725Z,100542.41
2022-10-10T12:28:54.893Z,100539.31
2022-10-10T12:32:13.580Z,100532.50
2022-10-10T12:35:35.891Z,100534.47
2022-10-10T12:38:37.931Z,100525.19
2022-10-10T12:41:47.253Z,100534.47
2022-10-10T12:44:49.661Z,100529.41
2022-10-10T12:48:07.325Z,100541.69
2022-10-10T12:51:22.011Z,100538.72
2022-10-10T12:54:45.027Z,100530.41
2022-10-10T12:57:49.411Z,100531.38
2022-10-10T13:00:52.933Z,100531.00
2022-10-10T13:03:56.327Z,100537.88
2022-10-10T13:07:02.030Z,100525.47
2022-10-10T13:10:19.384Z,100520.25
2022-10-10T13:13:21.449Z,100530.00
2022-10-10T13:16:29.810Z,100520.06
2022-10-10T13:19:41.651Z,100519.84
2022-10-10T13:22:47.186Z,100516.44
2022-10-10T13:25:49.518Z,100505.16
2022-10-10T13:28:53.590Z,100517.28
2022-10-10T13:32:06.246Z,100521.87
2022-10-10T13:35:27.047Z,100530.09
2022-10-10T13:38:29.026Z,100515.25
2022-10-10T13:41:31.292Z,100507.91
2022-10-10T13:44:47.935Z,100505.09
2022-10-10T13:47:52.261Z,100492.91
2022-10-10T13:51:07.467Z,100489.56
2022-10-10T13:54:37.440Z,100484.47
2022-10-10T13:57:40.887Z,100471.13
2022-10-10T14:00:43.354Z,100471.97
2022-10-10T14:03:47.735Z,100460.84
2022-10-10T14:06:52.697Z,100466.22
2022-10-10T14:09:59.809Z,100466.12
2022-10-10T14:13:01.957Z,100458.69
2022-10-10T14:16:25.423Z,100467.31
2022-10-10T14:19:27.866Z,100469.28
2022-10-10T14:22:29.886Z,100460.94
2022-10-10T14:25:32.328Z,100467.28
2022-10-10T14:28:38.834Z,100455.62
2022-10-10T14:31:42.300Z,100461.31
2022-10-10T14:34:44.883Z,100458.00
2022-10-10T14:37:46.835Z,100455.19
2022-10-10T14:40:50.184Z,100452.16
2022-10-10T14:43:52.230Z,100447.84
2022-10-10T14:46:54.260Z,100446.00
2022-10-10T14:49:58.069Z,100454.72
2022-10-10T14:53:00.095Z,100447.28
2022-10-10T14:56:02.028Z,100443.09
2022-10-10T14:59:04.043Z,100443.78
2022-10-10T15:02:06.435Z,100454.56
2022-10-10T15:05:08.514Z,100459.41
2022-10-10T15:08:15.802Z,100456.75
2022-10-10T15:11:18.196Z,100454.31
2022-10-10T15:14:20.134Z,100451.81
2022-10-10T15:17:22.177Z,100453.19
2022-10-10T15:20:30.898Z,100450.78
2022-10-10T15:23:33.278Z,100448.69
2022-10-10T15:26:35.297Z,100439.22
2022-10-10T15:29:39.073Z,100443.19
2022-10-10T15:32:41.800Z,100435.19
2022-10-10T15:36:08.123Z,100439.09
2022-10-10T15:39:05.897Z,100440.87
2022-10-10T15:42:14.022Z,100435.78
2022-10-10T15:45:31.224Z,100448.84
2022-10-10T15:48:39.365Z,100446.13
2022-10-10T15:51:46.391Z,100443.63
2022-10-10T15:54:49.374Z,100439.53
2022-10-10T15:57:51.374Z,100436.72
2022-10-10T16:00:54.404Z,100435.34
2022-10-10T16:03:57.071Z,100443.44
2022-10-10T16:07:23.231Z,100431.22
2022-10-10T16:10:21.079Z,100436.84
2022-10-10T16:13:23.612Z,100436.50
2022-10-10T16:16:25.779Z,100439.53
2022-10-10T16:19:28.023Z,100449.81
2022-10-10T16:22:29.958Z,100447.94
2022-10-10T16:25:31.907Z,100445.50
2022-10-10T16:28:34.776Z,100442.41
2022-10-10T16:31:39.215Z,100434.19
2022-10-10T16:34:41.241Z,100433.16
2022-10-10T16:37:43.359Z,100437.81
2022-10-10T16:40:45.376Z,100437.72
2022-10-10T16:43:48.078Z,100441.94
2022-10-10T16:46:50.477Z,100442.81
2022-10-10T16:49:52.442Z,100446.66
2022-10-10T16:52:54.429Z,100441.53
2022-10-10T16:56:00.933Z,100442.03
2022-10-10T16:59:03.490Z,100445.75
2022-10-10T17:02:05.531Z,100449.47
2022-10-10T17:05:08.080Z,100445.34
2022-10-10T17:08:10.517Z,100456.63
2022-10-10T17:11:14.621Z,100451.34
2022-10-10T17:14:16.700Z,100448.34
2022-10-10T17:17:19.514Z,100458.06
2022-10-10T17:20:22.079Z,100456.88
2022-10-10T17:23:23.999Z,100455.84
2022-10-10T17:26:28.007Z,100454.53
2022-10-10T17:29:30.023Z,100453.91
2022-10-10T17:32:32.268Z,100456.34
2022-10-10T17:35:42.559Z,100452.97
2022-10-10T17:38:45.614Z,100452.28
2022-10-10T17:41:49.356Z,100448.13
2022-10-10T17:44:56.135Z,100455.59
2022-10-10T17:47:58.296Z,100453.44
2022-10-10T17:51:00.343Z,100455.66
2022-10-10T17:54:03.478Z,100455.22
2022-10-10T17:57:05.588Z,100449.47
2022-10-10T18:00:08.234Z,100457.00
2022-10-10T18:03:12.431Z,100450.19
2022-10-10T18:06:18.390Z,100449.66
2022-10-10T18:09:20.896Z,100449.94
2022-10-10T18:12:23.266Z,100441.03
2022-10-10T18:15:25.249Z,100440.41
2022-10-10T18:18:27.497Z,100446.94
2022-10-10T18:21:29.685Z,100447.56
2022-10-10T18:24:32.278Z,100444.53
2022-10-10T18:27:34.754Z,100443.44
2022-10-10T18:30:40.582Z,100440.13
2022-10-10T18:33:45.467Z,100453.06
2022-10-10T18:36:47.562Z,100452.59
2022-10-10T18:39:49.670Z,100450.44
2022-10-10T18:42:51.967Z,100453.47
2022-10-10T18:45:59.825Z,100451.31
2022-10-10T18:49:03.357Z,100450.00
2022-10-10T18:52:07.886Z,100463.50
2022-10-10T18:55:17.402Z,100460.75
2022-10-10T18:58:19.788Z,100455.00
2022-10-10T19:01:24.895Z,100458.94
2022-10-10T19:04:27.624Z,100463.78
2022-10-10T19:07:29.759Z,100458.13
2022-10-10T19:10:31.976Z,100449.47
2022-10-10T19:13:34.742Z,100445.25
2022-10-10T19:16:38.022Z,100450.72
2022-10-10T19:19:40.106Z,100455.56
2022-10-10T19:22:42.162Z,100451.47
2022-10-10T19:25:48.739Z,100451.84
2022-10-10T19:28:53.978Z,100454.84
2022-10-10T19:31:56.317Z,100450.78
2022-10-10T19:34:58.991Z,100451.06
2022-10-10T19:38:01.029Z,100455.88
2022-10-10T19:41:07.180Z,100458.53
2022-10-10T19:44:09.286Z,100453.59
2022-10-10T19:47:11.265Z,100454.72
2022-10-10T19:50:13.272Z,100459.31
2022-10-10T19:53:18.031Z,100456.94
2022-10-10T19:56:24.608Z,100459.00
2022-10-10T19:59:26.761Z,100460.97
2022-10-10T20:02:28.716Z,100463.72
2022-10-10T20:05:30.858Z,100462.94
2022-10-10T20:08:33.508Z,100455.00
2022-10-10T20:11:35.660Z,100452.53
2022-10-10T20:14:37.735Z,100455.38
2022-10-10T20:17:39.862Z,100460.75
2022-10-10T20:20:44.743Z,100460.09
2022-10-10T20:23:49.140Z,100458.38
2022-10-10T20:26:51.271Z,100460.75
2022-10-10T20:29:53.303Z,100465.28
2022-10-10T20:32:55.282Z,100470.84
2022-10-10T20:36:01.224Z,100466.75
2022-10-10T20:39:06.880Z,100466.09
2022-10-10T20:42:09.069Z,100473.34
2022-10-10T20:45:11.762Z,100472.50
2022-10-10T20:48:13.823Z,100470.19
2022-10-10T20:51:15.776Z,100466.84
2022-10-10T20:54:20.490Z,100468.91
2022-10-10T20:57:22.585Z,100474.28
2022-10-10T21:00:26.766Z,100470.72
2022-10-10T21:03:30.260Z,100480.44
2022-10-10T21:06:34.700Z,100475.16
2022-10-10T21:09:37.293Z,100484.94
2022-10-10T21:12:39.690Z,100474.44
2022-10-10T21:15:43.593Z,100474.69
2022-10-10T21:18:57.096Z,100471.00
2022-10-10T21:22:06.719Z,100473.59
2022-10-10T21:25:09.046Z,100465.72
2022-10-10T21:28:11.191Z,100474.44
2022-10-10T21:31:15.672Z,100471.72
2022-10-10T21:34:19.072Z,100467.47
2022-10-10T21:37:21.163Z,100471.09
2022-10-10T21:40:23.155Z,100471.00
2022-10-10T21:43:25.364Z,100470.34
2022-10-10T21:46:34.981Z,100468.59
2022-10-10T21:49:38.388Z,100470.69
2022-10-10T21:52:40.467Z,100470.34
2022-10-10T21:55:42.490Z,100465.03
2022-10-10T21:58:47.857Z,100466.56
2022-10-10T22:01:49.876Z,100466.47
2022-10-10T22:04:52.023Z,100462.97
2022-10-10T22:07:54.006Z,100457.69
2022-10-10T22:11:00.479Z,100456.06
2022-10-10T22:14:03.313Z,100453.41
2022-10-10T22:17:05.274Z,100447.78
2022-10-10T22:20:09.760Z,100446.78
2022-10-10T22:23:11.866Z,100440.81
2022-10-10T22:26:16.909Z,100445.16
2022-10-10T22:29:18.903Z,100438.34
2022-10-10T22:32:21.153Z,100441.16
2022-10-10T22:35:23.220Z,100439.44
2022-10-10T22:38:25.227Z,100436.03
2022-10-10T22:41:27.213Z,100443.03
2022-10-10T22:44:29.174Z,100445.69
2022-10-10T22:47:31.159Z,100442.25
2022-10-10T22:50:33.743Z,100442.50
2022-10-10T22:53:36.177Z,100432.97
2022-10-10T22:56:38.179Z,100439.28
2022-10-10T22:59:40.191Z,100446.75
2022-10-10T23:02:42.145Z,100440.87
2022-10-10T23:05:45.479Z,100442.12
2022-10-10T23:08:47.558Z,100443.84
2022-10-10T23:11:49.518Z,100443.16
2022-10-10T23:14:51.538Z,100445.81
2022-10-10T23:17:53.543Z,100443.31
2022-10-10T23:20:56.102Z,100446.87
2022-10-10T23:23:58.153Z,100441.91
2022-10-10T23:27:00.099Z,100447.28
2022-10-10T23:30:02.028Z,100439.06
2022-10-10T23:33:04.123Z,100442.59
2022-10-10T23:36:12.189Z,100446.47
2022-10-10T23:39:14.715Z,100439.88
2022-10-10T23:42:17.070Z,100448.19
2022-10-10T23:45:19.783Z,100443.69
2022-10-10T23:48:21.950Z,100447.81
2022-10-10T23:51:23.970Z,100438.75
2022-10-10T23:54:26.005Z,100436.56
2022-10-10T23:57:28.154Z,100434.94
